sensor_id;sensor_type;location;lat;lon;timestamp;temperature;humidity
28835;DHT22;15969;51.536;11.884;2023-04-24T00:00:40;14.40;99.90
28835;DHT22;15969;51.536;11.884;2023-04-24T00:03:06;14.40;99.90
28835;DHT22;15969;51.536;11.884;2023-04-24T00:05:33;14.40;99.90
28835;DHT22;15969;51.536;11.884;2023-04-24T00:07:59;14.40;99.90
28835;DHT22;15969;51.536;11.884;2023-04-24T00:10:25;14.40;99.90
28835;DHT22;15969;51.536;11.884;2023-04-24T00:12:50;14.40;99.90
28835;DHT22;15969;51.536;11.884;2023-04-24T00:15:16;14.30;99.90
28835;DHT22;15969;51.536;11.884;2023-04-24T00:17:42;14.30;99.90
28835;DHT22;15969;51.536;11.884;2023-04-24T00:20:08;14.20;99.90
28835;DHT22;15969;51.536;11.884;2023-04-24T00:22:35;14.10;99.90
28835;DHT22;15969;51.536;11.884;2023-04-24T00:25:01;14.10;99.90
28835;DHT22;15969;51.536;11.884;2023-04-24T00:27:26;14.00;99.90
28835;DHT22;15969;51.536;11.884;2023-04-24T00:29:52;13.90;99.90
28835;DHT22;15969;51.536;11.884;2023-04-24T00:32:18;13.80;99.90
28835;DHT22;15969;51.536;11.884;2023-04-24T00:34:44;13.70;99.90
28835;DHT22;15969;51.536;11.884;2023-04-24T00:37:09;13.50;99.90
28835;DHT22;15969;51.536;11.884;2023-04-24T00:39:36;13.60;99.90
28835;DHT22;15969;51.536;11.884;2023-04-24T00:42:02;13.50;99.90
28835;DHT22;15969;51.536;11.884;2023-04-24T00:44:28;13.40;99.90
28835;DHT22;15969;51.536;11.884;2023-04-24T00:46:54;13.30;99.90
28835;DHT22;15969;51.536;11.884;2023-04-24T00:49:21;13.30;99.90
28835;DHT22;15969;51.536;11.884;2023-04-24T00:51:47;13.20;99.90
28835;DHT22;15969;51.536;11.884;2023-04-24T00:54:14;13.10;99.90
28835;DHT22;15969;51.536;11.884;2023-04-24T00:56:41;13.00;99.90
28835;DHT22;15969;51.536;11.884;2023-04-24T00:59:08;13.00;99.90
28835;DHT22;15969;51.536;11.884;2023-04-24T01:01:34;13.00;99.90
28835;DHT22;15969;51.536;11.884;2023-04-24T01:04:00;13.00;99.90
28835;DHT22;15969;51.536;11.884;2023-04-24T01:06:29;12.90;99.90
28835;DHT22;15969;51.536;11.884;2023-04-24T01:08:57;12.90;99.90
28835;DHT22;15969;51.536;11.884;2023-04-24T01:11:25;12.80;99.90
28835;DHT22;15969;51.536;11.884;2023-04-24T01:13:51;12.80;99.90
28835;DHT22;15969;51.536;11.884;2023-04-24T01:16:19;12.70;99.90
28835;DHT22;15969;51.536;11.884;2023-04-24T01:18:46;12.70;99.90
28835;DHT22;15969;51.536;11.884;2023-04-24T01:21:14;12.70;99.90
28835;DHT22;15969;51.536;11.884;2023-04-24T01:23:44;12.60;99.90
28835;DHT22;15969;51.536;11.884;2023-04-24T01:26:12;12.60;99.90
28835;DHT22;15969;51.536;11.884;2023-04-24T01:28:39;12.50;99.90
28835;DHT22;15969;51.536;11.884;2023-04-24T01:31:05;12.50;99.90
28835;DHT22;15969;51.536;11.884;2023-04-24T01:33:31;12.50;99.90
28835;DHT22;15969;51.536;11.884;2023-04-24T01:35:57;12.40;99.90
28835;DHT22;15969;51.536;11.884;2023-04-24T01:38:23;12.40;99.90
28835;DHT22;15969;51.536;11.884;2023-04-24T01:40:49;12.40;99.90
28835;DHT22;15969;51.536;11.884;2023-04-24T01:43:15;12.40;99.90
28835;DHT22;15969;51.536;11.884;2023-04-24T01:45:41;12.40;99.90
28835;DHT22;15969;51.536;11.884;2023-04-24T01:48:07;12.30;99.90
28835;DHT22;15969;51.536;11.884;2023-04-24T01:50:33;12.30;99.90
28835;DHT22;15969;51.536;11.884;2023-04-24T01:52:58;12.30;99.90
28835;DHT22;15969;51.536;11.884;2023-04-24T01:55:24;12.30;99.90
28835;DHT22;15969;51.536;11.884;2023-04-24T01:57:51;12.20;99.90
28835;DHT22;15969;51.536;11.884;2023-04-24T02:00:17;12.20;99.90
28835;DHT22;15969;51.536;11.884;2023-04-24T02:02:43;12.20;99.90
28835;DHT22;15969;51.536;11.884;2023-04-24T02:05:09;12.20;99.90
28835;DHT22;15969;51.536;11.884;2023-04-24T02:07:36;12.20;99.90
28835;DHT22;15969;51.536;11.884;2023-04-24T02:10:02;12.10;99.90
28835;DHT22;15969;51.536;11.884;2023-04-24T02:12:29;12.10;99.90
28835;DHT22;15969;51.536;11.884;2023-04-24T02:14:55;12.10;99.90
28835;DHT22;15969;51.536;11.884;2023-04-24T02:17:20;12.10;99.90
28835;DHT22;15969;51.536;11.884;2023-04-24T02:19:46;12.10;99.90
28835;DHT22;15969;51.536;11.884;2023-04-24T02:22:12;12.00;99.90
28835;DHT22;15969;51.536;11.884;2023-04-24T02:24:38;12.00;99.90
28835;DHT22;15969;51.536;11.884;2023-04-24T02:27:04;12.00;99.90
28835;DHT22;15969;51.536;11.884;2023-04-24T02:29:30;12.00;99.90
28835;DHT22;15969;51.536;11.884;2023-04-24T02:31:55;12.00;99.90
28835;DHT22;15969;51.536;11.884;2023-04-24T02:34:21;12.00;99.90
28835;DHT22;15969;51.536;11.884;2023-04-24T02:36:48;11.90;99.90
28835;DHT22;15969;51.536;11.884;2023-04-24T02:39:14;12.00;99.90
28835;DHT22;15969;51.536;11.884;2023-04-24T02:41:42;12.00;99.90
28835;DHT22;15969;51.536;11.884;2023-04-24T02:44:08;12.00;99.90
28835;DHT22;15969;51.536;11.884;2023-04-24T02:46:34;12.00;99.90
28835;DHT22;15969;51.536;11.884;2023-04-24T02:48:59;12.00;99.90
28835;DHT22;15969;51.536;11.884;2023-04-24T02:51:25;12.00;99.90
28835;DHT22;15969;51.536;11.884;2023-04-24T02:53:52;11.90;99.90
28835;DHT22;15969;51.536;11.884;2023-04-24T02:56:17;11.90;99.90
28835;DHT22;15969;51.536;11.884;2023-04-24T02:58:43;11.90;99.90
28835;DHT22;15969;51.536;11.884;2023-04-24T03:01:09;11.90;99.90
28835;DHT22;15969;51.536;11.884;2023-04-24T03:03:35;11.90;99.90
28835;DHT22;15969;51.536;11.884;2023-04-24T03:06:02;11.80;99.90
28835;DHT22;15969;51.536;11.884;2023-04-24T03:08:27;11.90;99.90
28835;DHT22;15969;51.536;11.884;2023-04-24T03:10:53;11.80;99.90
28835;DHT22;15969;51.536;11.884;2023-04-24T03:13:19;11.70;99.90
28835;DHT22;15969;51.536;11.884;2023-04-24T03:15:44;11.70;99.90
28835;DHT22;15969;51.536;11.884;2023-04-24T03:18:11;11.70;99.90
28835;DHT22;15969;51.536;11.884;2023-04-24T03:20:37;11.80;99.90
28835;DHT22;15969;51.536;11.884;2023-04-24T03:23:03;11.60;99.90
28835;DHT22;15969;51.536;11.884;2023-04-24T03:25:29;11.60;99.90
28835;DHT22;15969;51.536;11.884;2023-04-24T03:27:54;11.60;99.90
28835;DHT22;15969;51.536;11.884;2023-04-24T03:30:20;11.50;99.90
28835;DHT22;15969;51.536;11.884;2023-04-24T03:32:46;11.60;99.90
28835;DHT22;15969;51.536;11.884;2023-04-24T03:35:12;11.40;99.90
28835;DHT22;15969;51.536;11.884;2023-04-24T03:37:37;11.30;99.90
28835;DHT22;15969;51.536;11.884;2023-04-24T03:40:03;11.20;99.90
28835;DHT22;15969;51.536;11.884;2023-04-24T03:42:31;11.10;99.90
28835;DHT22;15969;51.536;11.884;2023-04-24T03:44:56;11.00;99.90
28835;DHT22;15969;51.536;11.884;2023-04-24T03:47:22;10.90;99.90
28835;DHT22;15969;51.536;11.884;2023-04-24T03:49:48;10.90;99.90
28835;DHT22;15969;51.536;11.884;2023-04-24T03:52:13;10.90;99.90
28835;DHT22;15969;51.536;11.884;2023-04-24T03:54:39;10.90;99.90
28835;DHT22;15969;51.536;11.884;2023-04-24T03:57:05;10.80;99.90
28835;DHT22;15969;51.536;11.884;2023-04-24T03:59:30;10.70;99.90
28835;DHT22;15969;51.536;11.884;2023-04-24T04:01:56;10.60;99.90
28835;DHT22;15969;51.536;11.884;2023-04-24T04:04:22;10.60;99.90
28835;DHT22;15969;51.536;11.884;2023-04-24T04:06:47;10.50;99.90
28835;DHT22;15969;51.536;11.884;2023-04-24T04:09:14;10.50;99.90
28835;DHT22;15969;51.536;11.884;2023-04-24T04:11:39;10.50;99.90
28835;DHT22;15969;51.536;11.884;2023-04-24T04:14:05;10.60;99.90
28835;DHT22;15969;51.536;11.884;2023-04-24T04:16:31;10.60;99.90
28835;DHT22;15969;51.536;11.884;2023-04-24T04:18:56;10.60;99.90
28835;DHT22;15969;51.536;11.884;2023-04-24T04:21:22;10.60;99.90
28835;DHT22;15969;51.536;11.884;2023-04-24T04:23:48;10.60;99.90
28835;DHT22;15969;51.536;11.884;2023-04-24T04:26:14;10.60;99.90
28835;DHT22;15969;51.536;11.884;2023-04-24T04:28:39;10.80;99.90
28835;DHT22;15969;51.536;11.884;2023-04-24T04:31:06;10.90;99.90
28835;DHT22;15969;51.536;11.884;2023-04-24T04:33:33;11.00;99.90
28835;DHT22;15969;51.536;11.884;2023-04-24T04:35:59;11.00;99.90
28835;DHT22;15969;51.536;11.884;2023-04-24T04:38:25;11.00;99.90
28835;DHT22;15969;51.536;11.884;2023-04-24T04:40:55;11.00;99.90
28835;DHT22;15969;51.536;11.884;2023-04-24T04:43:22;11.20;99.90
28835;DHT22;15969;51.536;11.884;2023-04-24T04:45:52;11.30;99.90
28835;DHT22;15969;51.536;11.884;2023-04-24T04:48:19;11.40;99.90
28835;DHT22;15969;51.536;11.884;2023-04-24T04:50:45;11.50;99.90
28835;DHT22;15969;51.536;11.884;2023-04-24T04:53:11;11.60;99.90
28835;DHT22;15969;51.536;11.884;2023-04-24T04:55:37;11.70;99.90
28835;DHT22;15969;51.536;11.884;2023-04-24T04:58:03;11.80;99.90
28835;DHT22;15969;51.536;11.884;2023-04-24T05:00:28;11.80;99.90
28835;DHT22;15969;51.536;11.884;2023-04-24T05:02:59;11.90;99.90
28835;DHT22;15969;51.536;11.884;2023-04-24T05:05:25;11.90;99.90
28835;DHT22;15969;51.536;11.884;2023-04-24T05:07:50;12.00;99.90
28835;DHT22;15969;51.536;11.884;2023-04-24T05:10:16;12.10;99.90
28835;DHT22;15969;51.536;11.884;2023-04-24T05:12:42;12.10;99.90
28835;DHT22;15969;51.536;11.884;2023-04-24T05:15:08;12.20;99.90
28835;DHT22;15969;51.536;11.884;2023-04-24T05:17:33;12.30;99.90
28835;DHT22;15969;51.536;11.884;2023-04-24T05:19:59;12.40;99.90
28835;DHT22;15969;51.536;11.884;2023-04-24T05:22:25;12.40;99.90
28835;DHT22;15969;51.536;11.884;2023-04-24T05:24:51;12.40;99.90
28835;DHT22;15969;51.536;11.884;2023-04-24T05:27:17;12.50;99.90
28835;DHT22;15969;51.536;11.884;2023-04-24T05:29:43;12.60;99.90
28835;DHT22;15969;51.536;11.884;2023-04-24T05:32:09;12.70;99.90
28835;DHT22;15969;51.536;11.884;2023-04-24T05:34:34;12.80;99.90
28835;DHT22;15969;51.536;11.884;2023-04-24T05:37:00;12.80;99.90
28835;DHT22;15969;51.536;11.884;2023-04-24T05:39:26;12.80;99.90
28835;DHT22;15969;51.536;11.884;2023-04-24T05:41:52;12.90;99.90
28835;DHT22;15969;51.536;11.884;2023-04-24T05:44:18;12.90;99.90
28835;DHT22;15969;51.536;11.884;2023-04-24T05:46:43;13.00;99.90
28835;DHT22;15969;51.536;11.884;2023-04-24T05:49:09;13.10;99.90
28835;DHT22;15969;51.536;11.884;2023-04-24T05:51:35;13.30;99.90
28835;DHT22;15969;51.536;11.884;2023-04-24T05:54:00;13.30;99.90
28835;DHT22;15969;51.536;11.884;2023-04-24T05:56:28;13.50;99.90
28835;DHT22;15969;51.536;11.884;2023-04-24T05:58:53;13.60;99.90
28835;DHT22;15969;51.536;11.884;2023-04-24T06:01:19;13.70;99.90
28835;DHT22;15969;51.536;11.884;2023-04-24T06:03:45;13.90;99.90
28835;DHT22;15969;51.536;11.884;2023-04-24T06:06:10;14.00;99.90
28835;DHT22;15969;51.536;11.884;2023-04-24T06:08:36;14.10;99.90
28835;DHT22;15969;51.536;11.884;2023-04-24T06:11:02;14.10;99.90
28835;DHT22;15969;51.536;11.884;2023-04-24T06:13:28;14.10;99.90
28835;DHT22;15969;51.536;11.884;2023-04-24T06:15:53;14.10;99.90
28835;DHT22;15969;51.536;11.884;2023-04-24T06:18:19;14.10;99.90
28835;DHT22;15969;51.536;11.884;2023-04-24T06:20:46;14.20;99.90
28835;DHT22;15969;51.536;11.884;2023-04-24T06:23:12;14.20;99.90
28835;DHT22;15969;51.536;11.884;2023-04-24T06:25:38;14.10;99.90
28835;DHT22;15969;51.536;11.884;2023-04-24T06:28:03;14.20;99.90
28835;DHT22;15969;51.536;11.884;2023-04-24T06:30:30;14.20;99.90
28835;DHT22;15969;51.536;11.884;2023-04-24T06:32:55;14.20;99.90
28835;DHT22;15969;51.536;11.884;2023-04-24T06:35:21;14.20;99.90
28835;DHT22;15969;51.536;11.884;2023-04-24T06:37:47;14.20;99.90
28835;DHT22;15969;51.536;11.884;2023-04-24T06:40:12;14.30;99.90
28835;DHT22;15969;51.536;11.884;2023-04-24T06:42:38;14.30;99.90
28835;DHT22;15969;51.536;11.884;2023-04-24T06:45:04;14.40;99.90
28835;DHT22;15969;51.536;11.884;2023-04-24T06:47:31;14.60;99.90
28835;DHT22;15969;51.536;11.884;2023-04-24T06:49:57;14.70;99.90
28835;DHT22;15969;51.536;11.884;2023-04-24T06:52:23;14.70;99.90
28835;DHT22;15969;51.536;11.884;2023-04-24T06:54:48;14.80;99.90
28835;DHT22;15969;51.536;11.884;2023-04-24T06:57:14;14.80;99.90
28835;DHT22;15969;51.536;11.884;2023-04-24T06:59:41;14.90;99.90
28835;DHT22;15969;51.536;11.884;2023-04-24T07:02:07;14.90;99.90
28835;DHT22;15969;51.536;11.884;2023-04-24T07:04:33;15.00;99.90
28835;DHT22;15969;51.536;11.884;2023-04-24T07:06:58;15.00;99.90
28835;DHT22;15969;51.536;11.884;2023-04-24T07:09:25;15.10;99.90
28835;DHT22;15969;51.536;11.884;2023-04-24T07:11:51;15.30;99.90
28835;DHT22;15969;51.536;11.884;2023-04-24T07:14:18;15.40;99.90
28835;DHT22;15969;51.536;11.884;2023-04-24T07:16:43;15.40;99.90
28835;DHT22;15969;51.536;11.884;2023-04-24T07:19:10;15.50;99.90
28835;DHT22;15969;51.536;11.884;2023-04-24T07:21:36;15.60;99.90
28835;DHT22;15969;51.536;11.884;2023-04-24T07:24:02;15.60;99.90
28835;DHT22;15969;51.536;11.884;2023-04-24T07:26:28;15.70;99.90
28835;DHT22;15969;51.536;11.884;2023-04-24T07:28:55;15.90;99.90
28835;DHT22;15969;51.536;11.884;2023-04-24T07:31:21;15.80;99.90
28835;DHT22;15969;51.536;11.884;2023-04-24T07:33:47;15.80;99.90
28835;DHT22;15969;51.536;11.884;2023-04-24T07:36:13;15.90;99.90
28835;DHT22;15969;51.536;11.884;2023-04-24T07:38:41;15.90;99.90
28835;DHT22;15969;51.536;11.884;2023-04-24T07:41:07;15.90;99.90
28835;DHT22;15969;51.536;11.884;2023-04-24T07:43:33;15.90;99.90
28835;DHT22;15969;51.536;11.884;2023-04-24T07:45:59;16.00;99.90
28835;DHT22;15969;51.536;11.884;2023-04-24T07:48:25;15.90;99.90
28835;DHT22;15969;51.536;11.884;2023-04-24T07:50:51;15.80;99.90
28835;DHT22;15969;51.536;11.884;2023-04-24T07:53:17;15.70;99.90
28835;DHT22;15969;51.536;11.884;2023-04-24T07:55:43;15.70;99.90
28835;DHT22;15969;51.536;11.884;2023-04-24T07:58:09;15.70;99.90
28835;DHT22;15969;51.536;11.884;2023-04-24T08:00:34;15.60;99.90
28835;DHT22;15969;51.536;11.884;2023-04-24T08:03:00;15.70;99.90
28835;DHT22;15969;51.536;11.884;2023-04-24T08:05:26;15.70;99.90
28835;DHT22;15969;51.536;11.884;2023-04-24T08:07:53;15.70;99.90
28835;DHT22;15969;51.536;11.884;2023-04-24T08:10:21;15.70;99.90
28835;DHT22;15969;51.536;11.884;2023-04-24T08:12:47;15.70;99.90
28835;DHT22;15969;51.536;11.884;2023-04-24T08:15:13;15.60;99.90
28835;DHT22;15969;51.536;11.884;2023-04-24T08:17:38;15.60;99.90
28835;DHT22;15969;51.536;11.884;2023-04-24T08:20:05;15.70;99.90
28835;DHT22;15969;51.536;11.884;2023-04-24T08:22:35;15.70;99.90
28835;DHT22;15969;51.536;11.884;2023-04-24T08:25:01;15.80;99.90
28835;DHT22;15969;51.536;11.884;2023-04-24T08:27:27;15.90;99.90
28835;DHT22;15969;51.536;11.884;2023-04-24T08:29:54;16.00;99.90
28835;DHT22;15969;51.536;11.884;2023-04-24T08:32:19;16.10;99.90
28835;DHT22;15969;51.536;11.884;2023-04-24T08:34:45;16.20;99.90
28835;DHT22;15969;51.536;11.884;2023-04-24T08:37:11;16.30;99.90
28835;DHT22;15969;51.536;11.884;2023-04-24T08:39:37;16.30;99.90
28835;DHT22;15969;51.536;11.884;2023-04-24T08:42:04;16.30;99.90
28835;DHT22;15969;51.536;11.884;2023-04-24T08:44:33;16.30;99.90
28835;DHT22;15969;51.536;11.884;2023-04-24T08:47:01;16.30;99.80
28835;DHT22;15969;51.536;11.884;2023-04-24T08:49:28;16.30;99.10
28835;DHT22;15969;51.536;11.884;2023-04-24T08:51:54;16.20;98.60
28835;DHT22;15969;51.536;11.884;2023-04-24T08:54:21;16.10;98.40
28835;DHT22;15969;51.536;11.884;2023-04-24T08:56:48;16.20;98.30
28835;DHT22;15969;51.536;11.884;2023-04-24T08:59:15;16.20;97.50
28835;DHT22;15969;51.536;11.884;2023-04-24T09:01:41;16.40;97.80
28835;DHT22;15969;51.536;11.884;2023-04-24T09:04:08;16.40;97.00
28835;DHT22;15969;51.536;11.884;2023-04-24T09:06:36;16.40;98.40
28835;DHT22;15969;51.536;11.884;2023-04-24T09:09:02;16.50;95.90
28835;DHT22;15969;51.536;11.884;2023-04-24T09:11:31;16.40;95.20
28835;DHT22;15969;51.536;11.884;2023-04-24T09:14:00;16.40;93.80
28835;DHT22;15969;51.536;11.884;2023-04-24T09:16:27;16.40;92.40
28835;DHT22;15969;51.536;11.884;2023-04-24T09:18:53;16.60;93.80
28835;DHT22;15969;51.536;11.884;2023-04-24T09:21:21;16.60;90.20
28835;DHT22;15969;51.536;11.884;2023-04-24T09:24:01;16.70;88.40
28835;DHT22;15969;51.536;11.884;2023-04-24T09:26:34;16.80;86.70
28835;DHT22;15969;51.536;11.884;2023-04-24T09:29:01;16.80;88.00
28835;DHT22;15969;51.536;11.884;2023-04-24T09:31:28;16.80;87.70
28835;DHT22;15969;51.536;11.884;2023-04-24T09:33:58;16.70;85.40
28835;DHT22;15969;51.536;11.884;2023-04-24T09:36:36;16.70;86.10
28835;DHT22;15969;51.536;11.884;2023-04-24T09:39:05;16.80;88.00
28835;DHT22;15969;51.536;11.884;2023-04-24T09:41:33;16.90;84.60
28835;DHT22;15969;51.536;11.884;2023-04-24T09:44:20;17.00;88.20
28835;DHT22;15969;51.536;11.884;2023-04-24T09:46:57;16.90;88.00
28835;DHT22;15969;51.536;11.884;2023-04-24T09:49:25;17.00;86.10
28835;DHT22;15969;51.536;11.884;2023-04-24T09:51:52;17.00;86.50
28835;DHT22;15969;51.536;11.884;2023-04-24T09:54:28;17.20;87.70
28835;DHT22;15969;51.536;11.884;2023-04-24T09:56:55;17.30;87.70
28835;DHT22;15969;51.536;11.884;2023-04-24T09:59:22;17.40;84.30
28835;DHT22;15969;51.536;11.884;2023-04-24T10:01:48;17.30;83.10
28835;DHT22;15969;51.536;11.884;2023-04-24T10:04:34;17.30;81.10
28835;DHT22;15969;51.536;11.884;2023-04-24T10:07:03;17.30;81.50
28835;DHT22;15969;51.536;11.884;2023-04-24T10:09:33;17.30;81.50
28835;DHT22;15969;51.536;11.884;2023-04-24T10:11:59;17.20;81.20
28835;DHT22;15969;51.536;11.884;2023-04-24T10:14:27;17.20;83.00
28835;DHT22;15969;51.536;11.884;2023-04-24T10:16:54;17.30;82.00
28835;DHT22;15969;51.536;11.884;2023-04-24T10:19:25;17.30;82.50
28835;DHT22;15969;51.536;11.884;2023-04-24T10:21:51;17.30;82.90
28835;DHT22;15969;51.536;11.884;2023-04-24T10:24:18;17.30;83.50
28835;DHT22;15969;51.536;11.884;2023-04-24T10:26:46;17.10;80.90
28835;DHT22;15969;51.536;11.884;2023-04-24T10:29:15;17.00;82.90
28835;DHT22;15969;51.536;11.884;2023-04-24T10:31:43;17.00;84.10
28835;DHT22;15969;51.536;11.884;2023-04-24T10:34:12;16.90;77.60
28835;DHT22;15969;51.536;11.884;2023-04-24T10:36:43;16.80;76.40
28835;DHT22;15969;51.536;11.884;2023-04-24T10:39:13;16.80;78.00
28835;DHT22;15969;51.536;11.884;2023-04-24T10:41:40;16.90;77.20
28835;DHT22;15969;51.536;11.884;2023-04-24T10:44:11;16.70;78.10
28835;DHT22;15969;51.536;11.884;2023-04-24T10:46:39;16.70;77.80
28835;DHT22;15969;51.536;11.884;2023-04-24T10:49:08;16.60;75.50
28835;DHT22;15969;51.536;11.884;2023-04-24T10:51:49;16.60;75.50
28835;DHT22;15969;51.536;11.884;2023-04-24T10:54:44;16.50;75.90
28835;DHT22;15969;51.536;11.884;2023-04-24T10:57:26;16.60;78.30
28835;DHT22;15969;51.536;11.884;2023-04-24T11:00:19;16.70;78.90
28835;DHT22;15969;51.536;11.884;2023-04-24T11:02:47;16.80;80.00
28835;DHT22;15969;51.536;11.884;2023-04-24T11:05:18;16.90;76.50
28835;DHT22;15969;51.536;11.884;2023-04-24T11:08:13;16.80;75.90
28835;DHT22;15969;51.536;11.884;2023-04-24T11:11:03;17.00;75.00
28835;DHT22;15969;51.536;11.884;2023-04-24T11:14:05;17.10;75.10
28835;DHT22;15969;51.536;11.884;2023-04-24T11:21:42;17.00;75.00
28835;DHT22;15969;51.536;11.884;2023-04-24T11:26:56;17.10;75.20
28835;DHT22;15969;51.536;11.884;2023-04-24T11:29:58;17.10;73.00
28835;DHT22;15969;51.536;11.884;2023-04-24T11:32:33;17.10;73.90
28835;DHT22;15969;51.536;11.884;2023-04-24T11:37:38;17.40;77.50
28835;DHT22;15969;51.536;11.884;2023-04-24T11:40:07;17.50;73.40
28835;DHT22;15969;51.536;11.884;2023-04-24T11:42:36;17.60;76.50
28835;DHT22;15969;51.536;11.884;2023-04-24T11:45:17;17.40;74.00
28835;DHT22;15969;51.536;11.884;2023-04-24T11:47:44;17.40;75.20
28835;DHT22;15969;51.536;11.884;2023-04-24T11:50:13;17.40;79.20
28835;DHT22;15969;51.536;11.884;2023-04-24T11:52:41;17.40;75.40
28835;DHT22;15969;51.536;11.884;2023-04-24T11:57:51;17.50;72.10
28835;DHT22;15969;51.536;11.884;2023-04-24T12:00:23;17.40;71.40
28835;DHT22;15969;51.536;11.884;2023-04-24T12:03:10;17.20;72.00
28835;DHT22;15969;51.536;11.884;2023-04-24T12:05:37;17.20;75.10
28835;DHT22;15969;51.536;11.884;2023-04-24T12:08:03;17.20;72.60
28835;DHT22;15969;51.536;11.884;2023-04-24T12:10:30;17.10;69.90
28835;DHT22;15969;51.536;11.884;2023-04-24T12:12:58;17.10;71.10
28835;DHT22;15969;51.536;11.884;2023-04-24T12:15:24;17.10;69.40
28835;DHT22;15969;51.536;11.884;2023-04-24T12:17:54;17.00;70.40
28835;DHT22;15969;51.536;11.884;2023-04-24T12:20:28;17.00;72.00
28835;DHT22;15969;51.536;11.884;2023-04-24T12:22:56;17.30;75.40
28835;DHT22;15969;51.536;11.884;2023-04-24T12:25:33;17.40;74.00
28835;DHT22;15969;51.536;11.884;2023-04-24T12:30:29;17.40;72.00
28835;DHT22;15969;51.536;11.884;2023-04-24T12:32:58;17.30;72.60
28835;DHT22;15969;51.536;11.884;2023-04-24T12:35:27;17.20;74.00
28835;DHT22;15969;51.536;11.884;2023-04-24T12:37:54;17.00;73.60
28835;DHT22;15969;51.536;11.884;2023-04-24T12:40:21;17.10;75.00
28835;DHT22;15969;51.536;11.884;2023-04-24T12:42:51;17.00;75.20
28835;DHT22;15969;51.536;11.884;2023-04-24T12:45:18;17.20;77.00
28835;DHT22;15969;51.536;11.884;2023-04-24T12:47:45;17.40;73.20
28835;DHT22;15969;51.536;11.884;2023-04-24T12:50:13;17.70;73.00
28835;DHT22;15969;51.536;11.884;2023-04-24T12:52:40;17.80;71.90
28835;DHT22;15969;51.536;11.884;2023-04-24T12:55:06;17.70;71.50
28835;DHT22;15969;51.536;11.884;2023-04-24T12:57:38;17.60;71.70
28835;DHT22;15969;51.536;11.884;2023-04-24T13:00:06;17.50;72.00
28835;DHT22;15969;51.536;11.884;2023-04-24T13:02:33;17.60;72.40
28835;DHT22;15969;51.536;11.884;2023-04-24T13:04:59;17.90;71.30
28835;DHT22;15969;51.536;11.884;2023-04-24T13:07:25;17.90;71.80
28835;DHT22;15969;51.536;11.884;2023-04-24T13:09:52;18.00;71.40
28835;DHT22;15969;51.536;11.884;2023-04-24T13:12:18;17.80;72.50
28835;DHT22;15969;51.536;11.884;2023-04-24T13:14:45;17.80;71.80
28835;DHT22;15969;51.536;11.884;2023-04-24T13:17:11;17.70;73.50
28835;DHT22;15969;51.536;11.884;2023-04-24T13:19:40;17.90;75.90
28835;DHT22;15969;51.536;11.884;2023-04-24T13:22:06;17.70;71.10
28835;DHT22;15969;51.536;11.884;2023-04-24T13:24:33;17.70;73.90
28835;DHT22;15969;51.536;11.884;2023-04-24T13:26:59;17.80;73.80
28835;DHT22;15969;51.536;11.884;2023-04-24T13:29:26;17.80;73.30
28835;DHT22;15969;51.536;11.884;2023-04-24T13:31:52;17.70;73.40
28835;DHT22;15969;51.536;11.884;2023-04-24T13:34:25;17.60;74.50
28835;DHT22;15969;51.536;11.884;2023-04-24T13:36:53;17.40;75.90
28835;DHT22;15969;51.536;11.884;2023-04-24T13:39:20;17.30;76.50
28835;DHT22;15969;51.536;11.884;2023-04-24T13:41:46;17.10;76.10
28835;DHT22;15969;51.536;11.884;2023-04-24T13:44:14;17.00;76.80
28835;DHT22;15969;51.536;11.884;2023-04-24T13:46:44;16.90;76.70
28835;DHT22;15969;51.536;11.884;2023-04-24T13:49:12;16.80;76.80
28835;DHT22;15969;51.536;11.884;2023-04-24T13:51:38;16.90;77.40
28835;DHT22;15969;51.536;11.884;2023-04-24T13:54:04;16.90;77.60
28835;DHT22;15969;51.536;11.884;2023-04-24T13:56:30;17.10;78.50
28835;DHT22;15969;51.536;11.884;2023-04-24T13:58:56;17.30;77.80
28835;DHT22;15969;51.536;11.884;2023-04-24T14:01:22;17.40;77.30
28835;DHT22;15969;51.536;11.884;2023-04-24T14:03:52;17.40;76.50
28835;DHT22;15969;51.536;11.884;2023-04-24T14:06:19;17.20;76.70
28835;DHT22;15969;51.536;11.884;2023-04-24T14:08:45;17.40;78.50
28835;DHT22;15969;51.536;11.884;2023-04-24T14:11:12;17.40;79.50
28835;DHT22;15969;51.536;11.884;2023-04-24T14:13:38;17.70;81.10
28835;DHT22;15969;51.536;11.884;2023-04-24T14:16:04;17.90;81.50
28835;DHT22;15969;51.536;11.884;2023-04-24T14:18:30;18.00;81.20
28835;DHT22;15969;51.536;11.884;2023-04-24T14:20:56;18.10;80.00
28835;DHT22;15969;51.536;11.884;2023-04-24T14:23:21;18.20;79.40
28835;DHT22;15969;51.536;11.884;2023-04-24T14:25:47;18.20;79.40
28835;DHT22;15969;51.536;11.884;2023-04-24T14:28:16;17.80;80.00
28835;DHT22;15969;51.536;11.884;2023-04-24T14:30:43;17.20;80.50
28835;DHT22;15969;51.536;11.884;2023-04-24T14:33:08;16.90;82.10
28835;DHT22;15969;51.536;11.884;2023-04-24T14:35:36;16.90;82.70
28835;DHT22;15969;51.536;11.884;2023-04-24T14:38:02;16.80;81.60
28835;DHT22;15969;51.536;11.884;2023-04-24T14:40:27;16.60;82.50
28835;DHT22;15969;51.536;11.884;2023-04-24T14:42:53;16.40;82.30
28835;DHT22;15969;51.536;11.884;2023-04-24T14:45:19;16.20;81.50
28835;DHT22;15969;51.536;11.884;2023-04-24T14:47:45;16.10;82.20
28835;DHT22;15969;51.536;11.884;2023-04-24T14:50:11;15.90;82.50
28835;DHT22;15969;51.536;11.884;2023-04-24T14:52:37;15.70;83.60
28835;DHT22;15969;51.536;11.884;2023-04-24T14:55:04;15.70;83.70
28835;DHT22;15969;51.536;11.884;2023-04-24T14:57:32;15.70;84.20
28835;DHT22;15969;51.536;11.884;2023-04-24T14:59:58;16.10;82.40
28835;DHT22;15969;51.536;11.884;2023-04-24T15:02:23;18.20;79.50
28835;DHT22;15969;51.536;11.884;2023-04-24T15:04:49;21.30;71.80
28835;DHT22;15969;51.536;11.884;2023-04-24T15:07:15;21.70;69.40
28835;DHT22;15969;51.536;11.884;2023-04-24T15:09:41;21.50;65.80
28835;DHT22;15969;51.536;11.884;2023-04-24T15:12:07;20.20;67.80
28835;DHT22;15969;51.536;11.884;2023-04-24T15:14:33;20.20;70.00
28835;DHT22;15969;51.536;11.884;2023-04-24T15:16:59;20.90;68.10
28835;DHT22;15969;51.536;11.884;2023-04-24T15:19:25;21.00;67.10
28835;DHT22;15969;51.536;11.884;2023-04-24T15:21:50;21.70;65.80
28835;DHT22;15969;51.536;11.884;2023-04-24T15:24:16;20.80;66.40
28835;DHT22;15969;51.536;11.884;2023-04-24T15:26:41;20.10;68.10
28835;DHT22;15969;51.536;11.884;2023-04-24T15:29:07;20.70;70.30
28835;DHT22;15969;51.536;11.884;2023-04-24T15:31:33;23.40;64.50